createdAt,value
2022-10-06T00:01:19.478Z,99604.34
2022-10-06T00:03:48.699Z,99601.81
2022-10-06T00:06:19.082Z,99614.06
2022-10-06T00:08:48.565Z,99635.25
2022-10-06T00:11:18.198Z,99655.41
2022-10-06T00:13:47.205Z,99663.28
2022-10-06T00:16:22.567Z,99663.28
2022-10-06T00:18:51.949Z,99668.88
2022-10-06T00:21:20.251Z,99663.25
2022-10-06T00:23:48.597Z,99668.84
2022-10-06T00:26:17.744Z,99670.13
2022-10-06T00:28:48.891Z,99672.91
2022-10-06T00:31:20.411Z,99671.13
2022-10-06T00:33:50.587Z,99677.25
2022-10-06T00:36:19.153Z,99677.03
2022-10-06T00:38:48.027Z,99685.94
2022-10-06T00:41:19.101Z,99683.41
2022-10-06T00:43:52.231Z,99676.53
2022-10-06T00:46:29.522Z,99680.09
2022-10-06T00:49:12.454Z,99685.97
2022-10-06T00:51:46.063Z,99684.94
2022-10-06T00:54:15.020Z,99688.50
2022-10-06T00:56:43.713Z,99694.63
2022-10-06T00:59:18.994Z,99696.72
2022-10-06T01:02:16.398Z,99702.34
2022-10-06T01:04:49.996Z,99703.38
2022-10-06T01:07:21.576Z,99699.03
2022-10-06T01:09:50.600Z,99702.09
2022-10-06T01:12:19.336Z,99689.59
2022-10-06T01:14:48.058Z,99690.59
2022-10-06T01:17:22.700Z,99695.97
2022-10-06T01:20:06.956Z,99692.91
2022-10-06T01:22:38.720Z,99694.16
2022-10-06T01:25:09.930Z,99691.63
2022-10-06T01:27:40.542Z,99698.50
2022-10-06T01:30:11.185Z,99698.50
2022-10-06T01:32:41.161Z,99693.91
2022-10-06T01:35:11.363Z,99695.44
2022-10-06T01:37:39.756Z,99691.34
2022-10-06T01:40:08.459Z,99695.13
2022-10-06T01:42:37.414Z,99696.94
2022-10-06T01:45:06.998Z,99688.00
2022-10-06T01:47:35.970Z,99689.00
2022-10-06T01:50:05.836Z,99686.44
2022-10-06T01:52:34.219Z,99688.50
2022-10-06T01:55:02.765Z,99686.69
2022-10-06T01:57:31.515Z,99684.91
2022-10-06T01:59:59.851Z,99680.31
2022-10-06T02:02:32.703Z,99692.06
2022-10-06T02:05:01.045Z,99694.88
2022-10-06T02:07:29.761Z,99689.78
2022-10-06T02:09:58.224Z,99687.22
2022-10-06T02:12:26.648Z,99684.91
2022-10-06T02:14:54.955Z,99686.66
2022-10-06T02:17:23.805Z,99695.06
2022-10-06T02:19:52.529Z,99686.38
2022-10-06T02:22:21.015Z,99684.84
2022-10-06T02:24:49.362Z,99689.44
2022-10-06T02:27:18.141Z,99687.09
2022-10-06T02:29:46.435Z,99688.34
2022-10-06T02:32:14.769Z,99686.81
2022-10-06T02:34:43.022Z,99691.41
2022-10-06T02:37:11.986Z,99699.28
2022-10-06T02:39:40.341Z,99702.13
2022-10-06T02:42:09.116Z,99702.63
2022-10-06T02:44:37.561Z,99710.03
2022-10-06T02:47:05.854Z,99708.47
2022-10-06T02:49:34.237Z,99708.44
2022-10-06T02:52:02.622Z,99710.44
2022-10-06T02:54:30.915Z,99704.28
2022-10-06T02:56:59.278Z,99706.81
2022-10-06T02:59:28.447Z,99708.09
2022-10-06T03:05:37.574Z,99707.25
2022-10-06T03:08:05.919Z,99707.22
2022-10-06T03:10:34.422Z,99718.47
2022-10-06T03:13:03.436Z,99713.09
2022-10-06T03:15:31.819Z,99713.34
2022-10-06T03:18:00.184Z,99714.56
2022-10-06T03:20:28.558Z,99713.25
2022-10-06T03:22:57.140Z,99699.34
2022-10-06T03:25:25.474Z,99703.16
2022-10-06T03:27:54.009Z,99701.28
2022-10-06T03:30:22.334Z,99689.44
2022-10-06T03:32:50.698Z,99686.31
2022-10-06T03:35:19.224Z,99685.50
2022-10-06T03:37:47.626Z,99676.00
2022-10-06T03:40:16.219Z,99674.69
2022-10-06T03:42:44.622Z,99673.63
2022-10-06T03:45:12.921Z,99676.91
2022-10-06T03:47:41.232Z,99667.94
2022-10-06T03:50:10.546Z,99668.69
2022-10-06T03:52:38.928Z,99665.56
2022-10-06T03:55:07.523Z,99658.56
2022-10-06T03:57:35.856Z,99648.03
2022-10-06T04:00:04.351Z,99651.75
2022-10-06T04:02:32.674Z,99650.16
2022-10-06T04:05:01.030Z,99650.31
2022-10-06T04:07:29.375Z,99651.03
2022-10-06T04:09:57.707Z,99642.97
2022-10-06T04:12:26.073Z,99642.59
2022-10-06T04:14:57.856Z,99635.81
2022-10-06T04:17:28.806Z,99630.31
2022-10-06T04:19:57.210Z,99617.88
2022-10-06T04:22:25.651Z,99614.66
2022-10-06T04:24:54.138Z,99615.88
2022-10-06T04:27:28.449Z,99602.97
2022-10-06T04:29:57.433Z,99597.25
2022-10-06T04:32:26.306Z,99589.16
2022-10-06T04:34:54.692Z,99588.84
2022-10-06T04:37:23.084Z,99580.59
2022-10-06T04:39:51.458Z,99572.97
2022-10-06T04:42:19.872Z,99576.25
2022-10-06T04:44:48.317Z,99575.06
2022-10-06T04:47:16.621Z,99578.22
2022-10-06T04:49:45.026Z,99578.59
2022-10-06T04:52:13.429Z,99565.66
2022-10-06T04:54:41.824Z,99569.38
2022-10-06T04:57:10.198Z,99567.72
2022-10-06T04:59:58.653Z,99566.09
2022-10-06T05:02:33.124Z,99557.81
2022-10-06T05:05:01.574Z,99541.63
2022-10-06T05:07:29.895Z,99538.25
2022-10-06T05:09:58.345Z,99527.38
2022-10-06T05:12:26.736Z,99512.91
2022-10-06T05:14:55.301Z,99510.53
2022-10-06T05:17:23.733Z,99508.66
2022-10-06T05:19:52.018Z,99501.69
2022-10-06T05:22:20.453Z,99502.66
2022-10-06T05:24:50.695Z,99494.59
2022-10-06T05:27:19.308Z,99486.34
2022-10-06T05:29:48.694Z,99488.06
2022-10-06T05:32:17.060Z,99478.25
2022-10-06T05:34:45.490Z,99481.34
2022-10-06T05:37:13.940Z,99478.50
2022-10-06T05:39:42.318Z,99475.00
2022-10-06T05:42:10.621Z,99461.94
2022-10-06T05:44:39.095Z,99468.72
2022-10-06T05:47:07.601Z,99450.22
2022-10-06T05:49:36.043Z,99442.25
2022-10-06T05:52:04.600Z,99448.81
2022-10-06T05:54:33.162Z,99437.00
2022-10-06T05:57:02.804Z,99431.59
2022-10-06T05:59:31.342Z,99421.94
2022-10-06T06:01:59.806Z,99417.16
2022-10-06T06:04:28.248Z,99413.16
2022-10-06T06:06:56.643Z,99404.69
2022-10-06T06:09:25.036Z,99398.59
2022-10-06T06:11:56.608Z,99389.13
2022-10-06T06:14:42.933Z,99385.56
2022-10-06T06:17:12.378Z,99376.09
2022-10-06T06:19:40.809Z,99373.28
2022-10-06T06:22:09.211Z,99359.56
2022-10-06T06:24:37.640Z,99348.38
2022-10-06T06:27:06.105Z,99347.13
2022-10-06T06:29:46.129Z,99337.75
2022-10-06T06:32:14.579Z,99331.41
2022-10-06T06:34:43.097Z,99332.25
2022-10-06T06:37:15.323Z,99322.31
2022-10-06T06:39:43.918Z,99318.59
2022-10-06T06:42:12.197Z,99322.41
2022-10-06T06:44:41.482Z,99310.63
2022-10-06T06:47:10.766Z,99306.53
2022-10-06T06:49:39.551Z,99300.91
2022-10-06T06:52:08.054Z,99293.59
2022-10-06T06:54:36.388Z,99289.41
2022-10-06T06:57:04.821Z,99297.84
2022-10-06T06:59:35.019Z,99284.97
2022-10-06T07:02:04.238Z,99285.97
2022-10-06T07:04:34.022Z,99278.88
2022-10-06T07:07:02.324Z,99275.78
2022-10-06T07:09:30.789Z,99274.41
2022-10-06T07:11:59.175Z,99261.94
2022-10-06T07:14:27.787Z,99260.75
2022-10-06T07:17:14.342Z,99252.06
2022-10-06T07:19:48.512Z,99250.75
2022-10-06T07:22:38.605Z,99237.41
2022-10-06T07:25:28.259Z,99224.56
2022-10-06T07:27:56.741Z,99230.44
2022-10-06T07:30:28.731Z,99225.53
2022-10-06T07:32:57.239Z,99215.53
2022-10-06T07:35:26.603Z,99212.50
2022-10-06T07:37:55.360Z,99205.34
2022-10-06T07:40:23.897Z,99189.16
2022-10-06T07:42:55.060Z,99172.75
2022-10-06T07:45:40.286Z,99170.13
2022-10-06T07:48:20.797Z,99168.81
2022-10-06T07:50:51.839Z,99174.25
2022-10-06T07:53:20.962Z,99168.06
2022-10-06T07:55:50.647Z,99171.00
2022-10-06T07:58:21.340Z,99175.13
2022-10-06T08:00:50.043Z,99167.56
2022-10-06T08:03:19.181Z,99165.06
2022-10-06T08:05:49.619Z,99158.13
2022-10-06T08:08:18.654Z,99164.53
2022-10-06T08:10:54.850Z,99163.53
2022-10-06T08:13:24.535Z,99164.31
2022-10-06T08:15:53.023Z,99146.38
2022-10-06T08:18:41.366Z,99141.69
2022-10-06T08:21:15.067Z,99134.97
2022-10-06T08:23:45.360Z,99137.78
2022-10-06T08:26:15.374Z,99125.19
2022-10-06T08:28:49.736Z,99132.34
2022-10-06T08:31:22.187Z,99133.31
2022-10-06T08:33:54.381Z,99125.03
2022-10-06T08:36:25.913Z,99130.69
2022-10-06T08:38:57.268Z,99117.09
2022-10-06T08:41:52.793Z,99122.00
2022-10-06T08:44:58.958Z,99111.47
2022-10-06T08:47:34.489Z,99113.72
2022-10-06T08:50:10.665Z,99116.75
2022-10-06T08:52:51.245Z,99112.66
2022-10-06T08:55:47.761Z,99116.44
2022-10-06T08:58:34.954Z,99106.84
2022-10-06T09:01:11.129Z,99110.22
2022-10-06T09:03:39.843Z,99120.00
2022-10-06T09:06:35.727Z,99110.03
2022-10-06T09:09:49.626Z,99116.22
2022-10-06T09:12:36.608Z,99109.25
2022-10-06T09:15:32.080Z,99100.78
2022-10-06T09:18:49.001Z,99101.34
2022-10-06T09:21:42.278Z,99104.16
2022-10-06T09:24:17.595Z,99103.94
2022-10-06T09:26:49.871Z,99095.25
2022-10-06T09:29:18.707Z,99096.00
2022-10-06T09:31:53.805Z,99100.72
2022-10-06T09:34:27.727Z,99104.09
2022-10-06T09:37:09.994Z,99112.56
2022-10-06T09:39:42.208Z,99116.16
2022-10-06T09:42:22.306Z,99124.84
2022-10-06T09:45:11.817Z,99125.78
2022-10-06T09:47:41.817Z,99136.00
2022-10-06T09:50:23.883Z,99139.03
2022-10-06T09:53:01.711Z,99165.63
2022-10-06T09:55:42.684Z,99183.81
2022-10-06T09:58:30.538Z,99213.44
2022-10-06T10:01:10.519Z,99216.38
2022-10-06T10:04:20.897Z,99220.66
2022-10-06T10:06:50.759Z,99220.50
2022-10-06T10:09:21.938Z,99236.69
2022-10-06T10:12:26.072Z,99246.97
2022-10-06T10:14:57.772Z,99232.28
2022-10-06T10:17:41.095Z,99221.06
2022-10-06T10:20:37.118Z,99208.22
2022-10-06T10:23:10.280Z,99211.75
2022-10-06T10:25:48.460Z,99212.09
2022-10-06T10:28:30.321Z,99220.44
2022-10-06T10:31:16.882Z,99227.25
2022-10-06T10:34:23.512Z,99236.31
2022-10-06T10:37:06.064Z,99252.00
2022-10-06T10:39:41.005Z,99248.25
2022-10-06T10:42:49.927Z,99256.22
2022-10-06T10:45:33.203Z,99242.75
2022-10-06T10:48:04.265Z,99248.41
2022-10-06T10:51:11.116Z,99264.78
2022-10-06T10:53:42.607Z,99264.31
2022-10-06T10:56:14.912Z,99273.75
2022-10-06T10:58:45.742Z,99276.84
2022-10-06T11:01:28.424Z,99277.88
2022-10-06T11:03:59.246Z,99290.91
2022-10-06T11:07:05.941Z,99299.63
2022-10-06T11:10:00.451Z,99299.38
2022-10-06T11:12:59.714Z,99301.94
2022-10-06T11:15:46.145Z,99303.22
2022-10-06T11:18:23.305Z,99312.94
2022-10-06T11:21:02.260Z,99321.34
2022-10-06T11:23:52.531Z,99325.44
2022-10-06T11:26:38.965Z,99328.78
2022-10-06T11:29:34.534Z,99328.53
2022-10-06T11:32:18.906Z,99335.44
2022-10-06T11:34:50.978Z,99335.44
2022-10-06T11:37:25.851Z,99338.22
2022-10-06T11:40:06.089Z,99329.03
2022-10-06T11:42:57.062Z,99337.47
2022-10-06T11:45:41.839Z,99340.78
2022-10-06T11:48:27.641Z,99343.59
2022-10-06T11:50:57.820Z,99350.75
2022-10-06T11:53:38.141Z,99350.75
2022-10-06T11:56:21.123Z,99357.34
2022-10-06T11:58:52.671Z,99351.75
2022-10-06T12:01:37.153Z,99360.16
2022-10-06T12:04:06.280Z,99359.41
2022-10-06T12:06:43.797Z,99365.78
2022-10-06T12:09:27.145Z,99368.06
2022-10-06T12:12:03.885Z,99372.91
2022-10-06T12:17:46.402Z,99385.69
2022-10-06T12:20:35.384Z,99393.31
2022-10-06T12:23:20.939Z,99410.16
2022-10-06T12:26:15.479Z,99408.91
2022-10-06T12:28:52.248Z,99409.69
2022-10-06T12:31:26.290Z,99410.44
2022-10-06T12:33:54.882Z,99416.06
2022-10-06T12:36:32.575Z,99422.44
2022-10-06T12:39:26.568Z,99425.25
2022-10-06T12:42:20.846Z,99430.09
2022-10-06T12:44:50.818Z,99436.47
2022-10-06T12:47:34.015Z,99432.13
2022-10-06T12:50:12.014Z,99439.28
2022-10-06T12:53:06.835Z,99443.38
2022-10-06T12:55:45.283Z,99444.13
2022-10-06T12:58:29.966Z,99444.13
2022-10-06T13:01:05.341Z,99444.88
2022-10-06T13:03:36.516Z,99447.69
2022-10-06T13:06:08.414Z,99454.84
2022-10-06T13:08:41.006Z,99464.53
2022-10-06T13:11:26.261Z,99463.25
2022-10-06T13:13:56.834Z,99457.63
2022-10-06T13:16:32.597Z,99468.09
2022-10-06T13:19:04.653Z,99460.19
2022-10-06T13:21:35.216Z,99480.84
2022-10-06T13:24:04.494Z,99488.50
2022-10-06T13:26:35.626Z,99495.94
2022-10-06T13:29:04.032Z,99503.81
2022-10-06T13:31:36.102Z,99505.88
2022-10-06T13:34:17.921Z,99513.00
2022-10-06T13:36:52.319Z,99515.81
2022-10-06T13:39:23.177Z,99525.25
2022-10-06T13:41:57.684Z,99528.06
2022-10-06T13:44:31.814Z,99529.59
2022-10-06T13:47:05.279Z,99526.00
2022-10-06T13:49:51.083Z,99535.97
2022-10-06T13:52:24.401Z,99516.31
2022-10-06T13:54:58.612Z,99524.75
2022-10-06T13:57:52.375Z,99526.78
2022-10-06T14:00:26.415Z,99537.25
2022-10-06T14:03:08.548Z,99533.16
2022-10-06T14:05:41.078Z,99535.19
2022-10-06T14:08:12.439Z,99547.72
2022-10-06T14:10:56.513Z,99550.75
2022-10-06T14:13:32.961Z,99554.84
2022-10-06T14:16:19.366Z,99566.06
2022-10-06T14:21:34.958Z,99580.13
2022-10-06T14:24:30.095Z,99587.78
2022-10-06T14:27:04.087Z,99590.06
2022-10-06T14:29:32.644Z,99587.25
2022-10-06T14:32:19.533Z,99588.78
2022-10-06T14:34:48.169Z,99589.56
2022-10-06T14:37:16.813Z,99585.47
2022-10-06T14:39:46.681Z,99592.59
2022-10-06T14:42:16.430Z,99591.84
2022-10-06T14:44:45.794Z,99591.84
2022-10-06T14:47:14.316Z,99588.53
2022-10-06T14:49:42.703Z,99587.75
2022-10-06T14:52:12.504Z,99586.47
2022-10-06T14:54:41.300Z,99585.72
2022-10-06T14:57:10.704Z,99588.78
2022-10-06T14:59:39.238Z,99580.34
2022-10-06T15:02:07.985Z,99584.94
2022-10-06T15:04:36.341Z,99585.69
2022-10-06T15:07:30.526Z,99580.34
2022-10-06T15:09:58.901Z,99584.66
2022-10-06T15:12:30.556Z,99583.63
2022-10-06T15:15:02.171Z,99585.16
2022-10-06T15:17:31.164Z,99586.69
2022-10-06T15:19:59.526Z,99589.78
2022-10-06T15:22:27.895Z,99585.69
2022-10-06T15:24:56.290Z,99589.50
2022-10-06T15:27:42.963Z,99587.47
2022-10-06T15:30:12.358Z,99591.28
2022-10-06T15:32:40.782Z,99595.63
2022-10-06T15:35:09.516Z,99600.72
2022-10-06T15:37:40.240Z,99604.31
2022-10-06T15:40:09.051Z,99597.41
2022-10-06T15:42:37.464Z,99600.97
2022-10-06T15:45:07.636Z,99591.28
2022-10-06T15:47:36.533Z,99591.28
2022-10-06T15:50:05.606Z,99595.34
2022-10-06T15:52:34.928Z,99588.47
2022-10-06T15:55:03.357Z,99586.41
2022-10-06T15:57:32.465Z,99591.28
2022-10-06T16:00:01.074Z,99591.28
2022-10-06T16:02:36.049Z,99596.88
2022-10-06T16:05:04.505Z,99597.41
2022-10-06T16:07:33.649Z,99608.63
2022-10-06T16:10:02.139Z,99609.16
2022-10-06T16:12:30.511Z,99602.78
2022-10-06T16:14:58.933Z,99599.97
2022-10-06T16:17:27.239Z,99596.38
2022-10-06T16:19:55.570Z,99610.44
2022-10-06T16:22:23.935Z,99600.47
2022-10-06T16:24:52.379Z,99602.53
2022-10-06T16:27:20.862Z,99597.44
2022-10-06T16:29:49.301Z,99595.91
2022-10-06T16:32:18.200Z,99592.31
2022-10-06T16:34:51.244Z,99587.47
2022-10-06T16:37:19.716Z,99577.53
2022-10-06T16:39:48.100Z,99585.94
2022-10-06T16:42:17.564Z,99580.31
2022-10-06T16:44:45.999Z,99585.19
2022-10-06T16:47:15.211Z,99578.03
2022-10-06T16:49:43.497Z,99589.28
2022-10-06T16:52:11.851Z,99579.31
2022-10-06T16:54:40.295Z,99572.94
2022-10-06T16:57:08.953Z,99563.22
2022-10-06T16:59:37.293Z,99563.75
2022-10-06T17:02:05.755Z,99564.22
2022-10-06T17:04:34.212Z,99552.25
2022-10-06T17:07:02.624Z,99547.91
2022-10-06T17:09:31.107Z,99550.72
2022-10-06T17:12:01.877Z,99546.38
2022-10-06T17:14:32.315Z,99542.81
2022-10-06T17:17:01.177Z,99541.28
2022-10-06T17:19:31.528Z,99541.78
2022-10-06T17:22:00.391Z,99540.50
2022-10-06T17:24:30.539Z,99535.41
2022-10-06T17:26:59.382Z,99531.84
2022-10-06T17:29:28.180Z,99521.13
2022-10-06T17:32:00.573Z,99521.88
2022-10-06T17:34:32.834Z,99520.38
2022-10-06T17:37:03.404Z,99516.53
2022-10-06T17:39:31.961Z,99523.69
2022-10-06T17:42:00.539Z,99523.44
2022-10-06T17:44:30.535Z,99513.50
2022-10-06T17:47:01.379Z,99507.88
2022-10-06T17:49:33.599Z,99507.63
2022-10-06T17:52:02.203Z,99504.06
2022-10-06T17:54:32.814Z,99502.53
2022-10-06T17:57:01.154Z,99504.56
2022-10-06T17:59:31.486Z,99503.03
2022-10-06T18:02:03.535Z,99504.31
2022-10-06T18:04:32.240Z,99500.00
2022-10-06T18:07:01.335Z,99502.03
2022-10-06T18:09:30.508Z,99492.09
2022-10-06T18:12:00.960Z,99484.94
2022-10-06T18:14:35.810Z,99483.41
2022-10-06T18:17:04.789Z,99476.28
2022-10-06T18:19:35.840Z,99470.66
2022-10-06T18:22:13.842Z,99462.72
2022-10-06T18:24:42.456Z,99450.75
2022-10-06T18:27:11.133Z,99445.66
2022-10-06T18:29:40.098Z,99442.59
2022-10-06T18:33:40.696Z,99441.81
2022-10-06T18:37:46.423Z,99447.19
2022-10-06T18:40:15.865Z,99449.72
2022-10-06T18:42:44.298Z,99445.38
2022-10-06T18:45:36.798Z,99442.59
2022-10-06T18:48:25.702Z,99440.28
2022-10-06T18:51:04.060Z,99442.34
2022-10-06T18:53:36.694Z,99433.91
2022-10-06T18:56:07.886Z,99433.16
2022-10-06T18:58:43.195Z,99431.63
2022-10-06T19:01:12.628Z,99430.88
2022-10-06T19:03:42.004Z,99425.78
2022-10-06T19:06:10.404Z,99422.97
2022-10-06T19:08:38.811Z,99414.28
2022-10-06T19:11:26.878Z,99416.34
2022-10-06T19:13:57.208Z,99428.84
2022-10-06T19:16:25.914Z,99422.47
2022-10-06T19:18:55.478Z,99414.06
2022-10-06T19:21:23.849Z,99414.06
2022-10-06T19:23:52.273Z,99411.75
2022-10-06T19:26:23.576Z,99409.72
2022-10-06T19:28:52.097Z,99405.38
2022-10-06T19:31:20.905Z,99399.78
2022-10-06T19:33:49.826Z,99400.28
2022-10-06T19:36:18.643Z,99405.13
2022-10-06T19:38:47.813Z,99403.63
2022-10-06T19:41:34.359Z,99411.28
2022-10-06T19:44:05.612Z,99408.19
2022-10-06T19:46:33.985Z,99415.06
2022-10-06T19:49:06.564Z,99412.78
2022-10-06T19:51:36.392Z,99413.53
2022-10-06T19:54:05.734Z,99407.69
2022-10-06T19:56:34.268Z,99406.41
2022-10-06T19:59:04.001Z,99405.41
2022-10-06T20:01:34.623Z,99400.31
2022-10-06T20:04:04.996Z,99400.81
2022-10-06T20:06:36.500Z,99403.38
2022-10-06T20:09:09.810Z,99403.13
2022-10-06T20:11:40.962Z,99399.56
2022-10-06T20:14:15.864Z,99399.31
2022-10-06T20:16:50.136Z,99393.47
2022-10-06T20:19:19.859Z,99389.13
2022-10-06T20:21:49.831Z,99389.63
2022-10-06T20:24:26.694Z,99390.91
2022-10-06T20:26:55.476Z,99377.41
2022-10-06T20:29:26.251Z,99385.56
2022-10-06T20:31:57.333Z,99382.78
2022-10-06T20:34:32.664Z,99373.34
2022-10-06T20:37:03.394Z,99371.03
2022-10-06T20:39:52.576Z,99373.59
2022-10-06T20:42:22.023Z,99365.69
2022-10-06T20:44:50.634Z,99366.97
2022-10-06T20:47:19.029Z,99373.84
2022-10-06T20:49:47.724Z,99373.09
2022-10-06T20:52:16.187Z,99375.63
2022-10-06T20:54:45.093Z,99362.91
2022-10-06T20:57:14.025Z,99366.97
2022-10-06T20:59:42.588Z,99359.09
2022-10-06T21:02:12.576Z,99357.56
2022-10-06T21:04:46.548Z,99356.78
2022-10-06T21:07:15.385Z,99351.94
2022-10-06T21:09:47.507Z,99351.19
2022-10-06T21:12:18.847Z,99358.31
2022-10-06T21:14:49.344Z,99363.16
2022-10-06T21:17:18.199Z,99359.59
2022-10-06T21:19:47.102Z,99360.88
2022-10-06T21:22:16.123Z,99362.91
2022-10-06T21:24:45.112Z,99362.91
2022-10-06T21:27:14.004Z,99360.63
2022-10-06T21:29:42.867Z,99364.19
2022-10-06T21:32:11.817Z,99368.28
2022-10-06T21:34:41.633Z,99367.50
2022-10-06T21:37:10.678Z,99365.97
2022-10-06T21:39:39.516Z,99376.44
2022-10-06T21:42:08.603Z,99378.47
2022-10-06T21:44:37.544Z,99378.47
2022-10-06T21:47:06.592Z,99383.31
2022-10-06T21:49:35.605Z,99383.31
2022-10-06T21:52:07.578Z,99387.38
2022-10-06T21:54:37.070Z,99387.38
2022-10-06T21:57:06.140Z,99397.81
2022-10-06T21:59:34.969Z,99399.84
2022-10-06T22:02:04.089Z,99401.91
2022-10-06T22:04:33.106Z,99404.69
2022-10-06T22:07:01.957Z,99400.38
2022-10-06T22:09:30.890Z,99405.22
2022-10-06T22:12:00.269Z,99404.97
2022-10-06T22:14:29.335Z,99404.97
2022-10-06T22:16:58.164Z,99406.19
2022-10-06T22:19:27.053Z,99404.69
2022-10-06T22:21:56.302Z,99416.66
2022-10-06T22:24:25.239Z,99416.41
2022-10-06T22:26:54.266Z,99415.63
2022-10-06T22:29:23.344Z,99416.91
2022-10-06T22:31:52.571Z,99416.16
2022-10-06T22:34:22.557Z,99416.41
2022-10-06T22:36:51.782Z,99424.56
2022-10-06T22:39:20.761Z,99421.75
2022-10-06T22:41:49.682Z,99421.50
2022-10-06T22:44:18.564Z,99422.25
2022-10-06T22:46:47.618Z,99420.75
2022-10-06T22:49:16.664Z,99425.56
2022-10-06T22:51:45.617Z,99424.06
2022-10-06T22:54:20.202Z,99432.47
2022-10-06T22:56:49.087Z,99436.53
2022-10-06T22:59:17.954Z,99438.56
2022-10-06T23:01:46.846Z,99437.81
2022-10-06T23:04:15.846Z,99440.63
2022-10-06T23:06:44.816Z,99443.16
2022-10-06T23:09:14.081Z,99451.81
2022-10-06T23:11:42.982Z,99457.44
2022-10-06T23:14:11.966Z,99454.63
2022-10-06T23:16:40.946Z,99463.03
2022-10-06T23:19:09.886Z,99463.28
2022-10-06T23:21:41.411Z,99463.28
2022-10-06T23:24:10.456Z,99473.22
2022-10-06T23:26:39.392Z,99474.00
2022-10-06T23:29:08.940Z,99481.88
2022-10-06T23:31:37.824Z,99484.19
2022-10-06T23:34:06.782Z,99486.47
2022-10-06T23:36:35.758Z,99499.47
2022-10-06T23:39:04.757Z,99506.88
2022-10-06T23:41:33.658Z,99499.50
2022-10-06T23:44:02.751Z,99518.13
2022-10-06T23:46:31.690Z,99512.25
2022-10-06T23:49:00.781Z,99521.69
2022-10-06T23:51:29.698Z,99521.44
2022-10-06T23:53:58.615Z,99531.63
2022-10-06T23:56:27.576Z,99529.84
2022-10-06T23:58:56.518Z,99545.16
